sensor_id;sensor_type;location;lat;lon;timestamp;P1;durP1;ratioP1;P2;durP2;ratioP2
58222;SDS011;44020;50.890;15.796;2023-09-19T00:00:43;1.20;;;0.90;;
58222;SDS011;44020;50.890;15.796;2023-09-19T00:03:31;2.30;;;1.00;;
58222;SDS011;44020;50.890;15.796;2023-09-19T00:05:58;2.80;;;1.20;;
58222;SDS011;44020;50.890;15.796;2023-09-19T00:08:25;3.70;;;0.90;;
58222;SDS011;44020;50.890;15.796;2023-09-19T00:10:52;4.40;;;1.20;;
58222;SDS011;44020;50.890;15.796;2023-09-19T00:13:21;5.30;;;1.20;;
58222;SDS011;44020;50.890;15.796;2023-09-19T00:15:49;3.20;;;1.40;;
58222;SDS011;44020;50.890;15.796;2023-09-19T00:18:20;3.20;;;1.30;;
58222;SDS011;44020;50.890;15.796;2023-09-19T00:20:48;2.80;;;1.20;;
58222;SDS011;44020;50.890;15.796;2023-09-19T00:23:16;4.00;;;1.40;;
58222;SDS011;44020;50.890;15.796;2023-09-19T00:25:45;4.50;;;1.20;;
58222;SDS011;44020;50.890;15.796;2023-09-19T00:28:12;3.00;;;1.40;;
58222;SDS011;44020;50.890;15.796;2023-09-19T00:30:43;3.40;;;1.60;;
58222;SDS011;44020;50.890;15.796;2023-09-19T00:33:11;3.30;;;1.20;;
58222;SDS011;44020;50.890;15.796;2023-09-19T00:35:49;4.80;;;1.50;;
58222;SDS011;44020;50.890;15.796;2023-09-19T00:38:18;3.90;;;1.30;;
58222;SDS011;44020;50.890;15.796;2023-09-19T00:40:49;1.90;;;1.30;;
58222;SDS011;44020;50.890;15.796;2023-09-19T00:43:20;5.10;;;1.30;;
58222;SDS011;44020;50.890;15.796;2023-09-19T00:45:49;3.20;;;1.20;;
58222;SDS011;44020;50.890;15.796;2023-09-19T00:48:21;3.90;;;1.40;;
58222;SDS011;44020;50.890;15.796;2023-09-19T00:50:49;5.30;;;1.30;;
58222;SDS011;44020;50.890;15.796;2023-09-19T00:53:23;2.30;;;1.40;;
58222;SDS011;44020;50.890;15.796;2023-09-19T00:55:52;6.10;;;1.60;;
58222;SDS011;44020;50.890;15.796;2023-09-19T00:58:19;3.40;;;1.30;;
58222;SDS011;44020;50.890;15.796;2023-09-19T01:00:50;2.70;;;1.20;;
58222;SDS011;44020;50.890;15.796;2023-09-19T01:05:47;4.50;;;1.20;;
58222;SDS011;44020;50.890;15.796;2023-09-19T01:08:14;4.00;;;1.20;;
58222;SDS011;44020;50.890;15.796;2023-09-19T01:10:44;2.00;;;1.20;;
58222;SDS011;44020;50.890;15.796;2023-09-19T01:13:21;1.80;;;1.30;;
58222;SDS011;44020;50.890;15.796;2023-09-19T01:16:07;3.00;;;1.60;;
58222;SDS011;44020;50.890;15.796;2023-09-19T01:18:40;4.50;;;1.90;;
58222;SDS011;44020;50.890;15.796;2023-09-19T01:24:31;6.60;;;2.60;;
58222;SDS011;44020;50.890;15.796;2023-09-19T01:29:39;6.80;;;2.10;;
58222;SDS011;44020;50.890;15.796;2023-09-19T01:32:11;1.90;;;1.40;;
58222;SDS011;44020;50.890;15.796;2023-09-19T01:37:31;3.30;;;1.10;;
58222;SDS011;44020;50.890;15.796;2023-09-19T01:39:59;2.40;;;1.10;;
58222;SDS011;44020;50.890;15.796;2023-09-19T01:42:59;5.60;;;1.00;;
58222;SDS011;44020;50.890;15.796;2023-09-19T01:48:21;5.10;;;1.10;;
58222;SDS011;44020;50.890;15.796;2023-09-19T01:53:49;2.30;;;0.70;;
58222;SDS011;44020;50.890;15.796;2023-09-19T01:56:31;1.70;;;0.80;;
58222;SDS011;44020;50.890;15.796;2023-09-19T01:59:10;2.80;;;0.90;;
58222;SDS011;44020;50.890;15.796;2023-09-19T02:01:40;2.70;;;0.80;;
58222;SDS011;44020;50.890;15.796;2023-09-19T02:04:11;2.30;;;0.80;;
58222;SDS011;44020;50.890;15.796;2023-09-19T02:06:39;3.00;;;0.80;;
58222;SDS011;44020;50.890;15.796;2023-09-19T02:09:09;3.20;;;0.80;;
58222;SDS011;44020;50.890;15.796;2023-09-19T02:11:37;4.00;;;1.10;;
58222;SDS011;44020;50.890;15.796;2023-09-19T02:14:05;2.40;;;1.20;;
58222;SDS011;44020;50.890;15.796;2023-09-19T02:16:35;3.40;;;1.30;;
58222;SDS011;44020;50.890;15.796;2023-09-19T02:19:02;3.20;;;1.00;;
58222;SDS011;44020;50.890;15.796;2023-09-19T02:21:32;2.00;;;1.00;;
58222;SDS011;44020;50.890;15.796;2023-09-19T02:24:02;3.10;;;1.20;;
58222;SDS011;44020;50.890;15.796;2023-09-19T02:26:30;1.70;;;0.60;;
58222;SDS011;44020;50.890;15.796;2023-09-19T02:28:57;2.10;;;0.70;;
58222;SDS011;44020;50.890;15.796;2023-09-19T02:31:25;1.90;;;0.90;;
58222;SDS011;44020;50.890;15.796;2023-09-19T02:33:52;3.40;;;0.80;;
58222;SDS011;44020;50.890;15.796;2023-09-19T02:36:19;2.20;;;0.90;;
58222;SDS011;44020;50.890;15.796;2023-09-19T02:38:46;3.00;;;0.70;;
58222;SDS011;44020;50.890;15.796;2023-09-19T02:41:13;2.10;;;0.90;;
58222;SDS011;44020;50.890;15.796;2023-09-19T02:43:40;4.20;;;0.80;;
58222;SDS011;44020;50.890;15.796;2023-09-19T02:46:09;2.50;;;0.60;;
58222;SDS011;44020;50.890;15.796;2023-09-19T02:48:38;2.40;;;0.80;;
58222;SDS011;44020;50.890;15.796;2023-09-19T02:51:05;5.50;;;0.90;;
58222;SDS011;44020;50.890;15.796;2023-09-19T02:53:32;3.60;;;1.00;;
58222;SDS011;44020;50.890;15.796;2023-09-19T02:55:59;3.00;;;0.70;;
58222;SDS011;44020;50.890;15.796;2023-09-19T02:58:31;2.40;;;0.60;;
58222;SDS011;44020;50.890;15.796;2023-09-19T03:01:11;2.10;;;0.70;;
58222;SDS011;44020;50.890;15.796;2023-09-19T03:03:39;3.40;;;1.10;;
58222;SDS011;44020;50.890;15.796;2023-09-19T03:06:07;2.60;;;1.00;;
58222;SDS011;44020;50.890;15.796;2023-09-19T03:11:09;2.50;;;0.80;;
58222;SDS011;44020;50.890;15.796;2023-09-19T03:13:38;4.50;;;1.20;;
58222;SDS011;44020;50.890;15.796;2023-09-19T03:16:06;3.80;;;1.10;;
58222;SDS011;44020;50.890;15.796;2023-09-19T03:18:34;1.80;;;1.10;;
58222;SDS011;44020;50.890;15.796;2023-09-19T03:21:01;2.20;;;1.00;;
58222;SDS011;44020;50.890;15.796;2023-09-19T03:23:29;3.40;;;1.20;;
58222;SDS011;44020;50.890;15.796;2023-09-19T03:25:57;2.50;;;1.10;;
58222;SDS011;44020;50.890;15.796;2023-09-19T03:28:25;3.30;;;1.40;;
58222;SDS011;44020;50.890;15.796;2023-09-19T03:30:59;1.50;;;1.10;;
58222;SDS011;44020;50.890;15.796;2023-09-19T03:33:28;2.40;;;0.90;;
58222;SDS011;44020;50.890;15.796;2023-09-19T03:35:55;1.10;;;0.90;;
58222;SDS011;44020;50.890;15.796;2023-09-19T03:38:25;2.20;;;0.90;;
58222;SDS011;44020;50.890;15.796;2023-09-19T03:40:53;1.40;;;1.30;;
58222;SDS011;44020;50.890;15.796;2023-09-19T03:43:21;2.50;;;1.40;;
58222;SDS011;44020;50.890;15.796;2023-09-19T03:45:48;2.40;;;1.00;;
58222;SDS011;44020;50.890;15.796;2023-09-19T03:48:15;1.60;;;1.10;;
58222;SDS011;44020;50.890;15.796;2023-09-19T03:50:43;2.20;;;1.30;;
58222;SDS011;44020;50.890;15.796;2023-09-19T03:53:10;3.20;;;1.40;;
58222;SDS011;44020;50.890;15.796;2023-09-19T03:55:37;4.70;;;1.30;;
58222;SDS011;44020;50.890;15.796;2023-09-19T03:58:08;2.30;;;1.70;;
58222;SDS011;44020;50.890;15.796;2023-09-19T04:00:34;1.50;;;1.20;;
58222;SDS011;44020;50.890;15.796;2023-09-19T04:03:02;1.50;;;1.30;;
58222;SDS011;44020;50.890;15.796;2023-09-19T04:05:32;1.60;;;1.10;;
58222;SDS011;44020;50.890;15.796;2023-09-19T04:08:00;3.10;;;1.20;;
58222;SDS011;44020;50.890;15.796;2023-09-19T04:10:27;1.40;;;1.30;;
58222;SDS011;44020;50.890;15.796;2023-09-19T04:12:55;2.10;;;1.20;;
58222;SDS011;44020;50.890;15.796;2023-09-19T04:15:23;2.60;;;1.00;;
58222;SDS011;44020;50.890;15.796;2023-09-19T04:17:51;3.30;;;1.00;;
58222;SDS011;44020;50.890;15.796;2023-09-19T04:20:18;2.40;;;1.10;;
58222;SDS011;44020;50.890;15.796;2023-09-19T04:22:52;2.20;;;1.10;;
58222;SDS011;44020;50.890;15.796;2023-09-19T04:25:19;1.40;;;1.00;;
58222;SDS011;44020;50.890;15.796;2023-09-19T04:27:47;1.80;;;1.00;;
58222;SDS011;44020;50.890;15.796;2023-09-19T04:30:14;1.60;;;1.10;;
58222;SDS011;44020;50.890;15.796;2023-09-19T04:32:41;1.30;;;1.00;;
58222;SDS011;44020;50.890;15.796;2023-09-19T04:35:09;4.20;;;1.20;;
58222;SDS011;44020;50.890;15.796;2023-09-19T04:37:38;2.50;;;1.20;;
58222;SDS011;44020;50.890;15.796;2023-09-19T04:40:10;1.60;;;0.90;;
58222;SDS011;44020;50.890;15.796;2023-09-19T04:42:43;4.20;;;1.00;;
58222;SDS011;44020;50.890;15.796;2023-09-19T04:45:11;2.40;;;1.30;;
58222;SDS011;44020;50.890;15.796;2023-09-19T04:47:38;3.30;;;0.90;;
58222;SDS011;44020;50.890;15.796;2023-09-19T04:50:07;2.40;;;1.10;;
58222;SDS011;44020;50.890;15.796;2023-09-19T04:52:39;3.20;;;1.20;;
58222;SDS011;44020;50.890;15.796;2023-09-19T04:55:09;1.50;;;1.10;;
58222;SDS011;44020;50.890;15.796;2023-09-19T04:57:37;2.40;;;1.00;;
58222;SDS011;44020;50.890;15.796;2023-09-19T05:00:05;4.10;;;1.50;;
58222;SDS011;44020;50.890;15.796;2023-09-19T05:02:39;3.70;;;1.20;;
58222;SDS011;44020;50.890;15.796;2023-09-19T05:05:07;2.80;;;1.30;;
58222;SDS011;44020;50.890;15.796;2023-09-19T05:07:35;2.20;;;1.20;;
58222;SDS011;44020;50.890;15.796;2023-09-19T05:10:02;3.70;;;1.10;;
58222;SDS011;44020;50.890;15.796;2023-09-19T05:12:35;1.40;;;1.10;;
58222;SDS011;44020;50.890;15.796;2023-09-19T05:15:03;2.60;;;1.40;;
58222;SDS011;44020;50.890;15.796;2023-09-19T05:17:33;4.60;;;2.40;;
58222;SDS011;44020;50.890;15.796;2023-09-19T05:20:02;6.90;;;2.90;;
58222;SDS011;44020;50.890;15.796;2023-09-19T05:23:12;5.40;;;2.90;;
58222;SDS011;44020;50.890;15.796;2023-09-19T05:25:39;4.30;;;2.00;;
58222;SDS011;44020;50.890;15.796;2023-09-19T05:28:07;2.60;;;1.60;;
58222;SDS011;44020;50.890;15.796;2023-09-19T05:30:36;5.50;;;1.90;;
58222;SDS011;44020;50.890;15.796;2023-09-19T05:33:05;4.40;;;2.20;;
58222;SDS011;44020;50.890;15.796;2023-09-19T05:35:32;3.50;;;2.00;;
58222;SDS011;44020;50.890;15.796;2023-09-19T05:38:00;4.50;;;2.20;;
58222;SDS011;44020;50.890;15.796;2023-09-19T05:40:27;3.80;;;2.70;;
58222;SDS011;44020;50.890;15.796;2023-09-19T05:42:54;5.30;;;2.70;;
58222;SDS011;44020;50.890;15.796;2023-09-19T05:45:21;4.20;;;2.50;;
58222;SDS011;44020;50.890;15.796;2023-09-19T05:47:52;4.40;;;2.10;;
58222;SDS011;44020;50.890;15.796;2023-09-19T05:50:27;5.20;;;2.00;;
58222;SDS011;44020;50.890;15.796;2023-09-19T05:52:54;2.50;;;1.80;;
58222;SDS011;44020;50.890;15.796;2023-09-19T05:55:22;4.50;;;1.90;;
58222;SDS011;44020;50.890;15.796;2023-09-19T05:57:52;4.00;;;1.70;;
58222;SDS011;44020;50.890;15.796;2023-09-19T06:00:20;2.10;;;1.70;;
58222;SDS011;44020;50.890;15.796;2023-09-19T06:02:50;2.60;;;1.60;;
58222;SDS011;44020;50.890;15.796;2023-09-19T06:05:22;3.40;;;1.70;;
58222;SDS011;44020;50.890;15.796;2023-09-19T06:07:53;3.40;;;2.00;;
58222;SDS011;44020;50.890;15.796;2023-09-19T06:10:21;3.70;;;1.90;;
58222;SDS011;44020;50.890;15.796;2023-09-19T06:12:49;8.00;;;2.10;;
58222;SDS011;44020;50.890;15.796;2023-09-19T06:15:17;6.10;;;1.90;;
58222;SDS011;44020;50.890;15.796;2023-09-19T06:17:50;3.20;;;1.80;;
58222;SDS011;44020;50.890;15.796;2023-09-19T06:20:18;3.30;;;2.10;;
58222;SDS011;44020;50.890;15.796;2023-09-19T06:22:46;3.60;;;1.90;;
58222;SDS011;44020;50.890;15.796;2023-09-19T06:25:13;5.90;;;2.00;;
58222;SDS011;44020;50.890;15.796;2023-09-19T06:27:48;4.30;;;2.10;;
58222;SDS011;44020;50.890;15.796;2023-09-19T06:30:19;3.00;;;2.10;;
58222;SDS011;44020;50.890;15.796;2023-09-19T06:32:47;2.50;;;1.90;;
58222;SDS011;44020;50.890;15.796;2023-09-19T06:35:15;6.00;;;2.50;;
58222;SDS011;44020;50.890;15.796;2023-09-19T06:37:43;4.10;;;2.20;;
58222;SDS011;44020;50.890;15.796;2023-09-19T06:40:11;4.60;;;2.00;;
58222;SDS011;44020;50.890;15.796;2023-09-19T06:45:17;8.30;;;2.10;;
58222;SDS011;44020;50.890;15.796;2023-09-19T06:47:45;3.70;;;2.20;;
58222;SDS011;44020;50.890;15.796;2023-09-19T06:50:25;7.00;;;2.50;;
58222;SDS011;44020;50.890;15.796;2023-09-19T06:52:53;4.00;;;2.50;;
58222;SDS011;44020;50.890;15.796;2023-09-19T06:55:21;4.20;;;2.40;;
58222;SDS011;44020;50.890;15.796;2023-09-19T06:57:51;3.70;;;2.60;;
58222;SDS011;44020;50.890;15.796;2023-09-19T07:00:20;4.40;;;2.00;;
58222;SDS011;44020;50.890;15.796;2023-09-19T07:02:58;3.30;;;2.30;;
58222;SDS011;44020;50.890;15.796;2023-09-19T07:05:28;6.50;;;2.40;;
58222;SDS011;44020;50.890;15.796;2023-09-19T07:07:55;3.30;;;2.40;;
58222;SDS011;44020;50.890;15.796;2023-09-19T07:10:22;2.50;;;2.00;;
58222;SDS011;44020;50.890;15.796;2023-09-19T07:12:57;3.50;;;2.10;;
58222;SDS011;44020;50.890;15.796;2023-09-19T07:15:25;3.80;;;2.00;;
58222;SDS011;44020;50.890;15.796;2023-09-19T07:17:55;3.30;;;1.90;;
58222;SDS011;44020;50.890;15.796;2023-09-19T07:20:23;4.10;;;1.70;;
58222;SDS011;44020;50.890;15.796;2023-09-19T07:25:22;2.90;;;1.70;;
58222;SDS011;44020;50.890;15.796;2023-09-19T07:27:49;4.00;;;2.30;;
58222;SDS011;44020;50.890;15.796;2023-09-19T07:30:17;5.30;;;2.10;;
58222;SDS011;44020;50.890;15.796;2023-09-19T07:32:44;4.90;;;2.30;;
58222;SDS011;44020;50.890;15.796;2023-09-19T07:35:12;8.70;;;3.90;;
58222;SDS011;44020;50.890;15.796;2023-09-19T07:37:39;3.60;;;2.30;;
58222;SDS011;44020;50.890;15.796;2023-09-19T07:40:06;5.00;;;1.90;;
58222;SDS011;44020;50.890;15.796;2023-09-19T07:42:36;4.00;;;2.00;;
58222;SDS011;44020;50.890;15.796;2023-09-19T07:45:05;3.60;;;1.70;;
58222;SDS011;44020;50.890;15.796;2023-09-19T07:47:36;2.60;;;1.70;;
58222;SDS011;44020;50.890;15.796;2023-09-19T07:50:03;5.20;;;1.60;;
58222;SDS011;44020;50.890;15.796;2023-09-19T07:52:30;2.30;;;1.70;;
58222;SDS011;44020;50.890;15.796;2023-09-19T07:55:00;4.00;;;1.90;;
58222;SDS011;44020;50.890;15.796;2023-09-19T07:57:28;5.00;;;2.00;;
58222;SDS011;44020;50.890;15.796;2023-09-19T07:59:55;3.70;;;1.40;;
58222;SDS011;44020;50.890;15.796;2023-09-19T08:02:23;6.00;;;1.80;;
58222;SDS011;44020;50.890;15.796;2023-09-19T08:04:50;3.00;;;1.70;;
58222;SDS011;44020;50.890;15.796;2023-09-19T08:07:18;2.90;;;1.60;;
58222;SDS011;44020;50.890;15.796;2023-09-19T08:09:45;3.70;;;1.50;;
58222;SDS011;44020;50.890;15.796;2023-09-19T08:12:15;1.60;;;1.20;;
58222;SDS011;44020;50.890;15.796;2023-09-19T08:14:43;3.10;;;1.50;;
58222;SDS011;44020;50.890;15.796;2023-09-19T08:17:10;2.30;;;1.40;;
58222;SDS011;44020;50.890;15.796;2023-09-19T08:19:38;2.40;;;1.40;;
58222;SDS011;44020;50.890;15.796;2023-09-19T08:22:08;1.80;;;1.30;;
58222;SDS011;44020;50.890;15.796;2023-09-19T08:24:48;3.10;;;1.60;;
58222;SDS011;44020;50.890;15.796;2023-09-19T08:27:15;4.30;;;1.50;;
58222;SDS011;44020;50.890;15.796;2023-09-19T08:29:44;2.90;;;1.50;;
58222;SDS011;44020;50.890;15.796;2023-09-19T08:32:13;3.70;;;1.10;;
58222;SDS011;44020;50.890;15.796;2023-09-19T08:34:41;3.00;;;1.30;;
58222;SDS011;44020;50.890;15.796;2023-09-19T08:37:08;3.20;;;1.40;;
58222;SDS011;44020;50.890;15.796;2023-09-19T08:39:36;2.70;;;1.30;;
58222;SDS011;44020;50.890;15.796;2023-09-19T08:42:04;2.50;;;1.20;;
58222;SDS011;44020;50.890;15.796;2023-09-19T08:44:31;2.70;;;1.30;;
58222;SDS011;44020;50.890;15.796;2023-09-19T08:47:10;3.00;;;1.40;;
58222;SDS011;44020;50.890;15.796;2023-09-19T08:52:43;5.10;;;1.30;;
58222;SDS011;44020;50.890;15.796;2023-09-19T08:57:49;3.10;;;1.30;;
58222;SDS011;44020;50.890;15.796;2023-09-19T09:00:16;3.10;;;1.20;;
58222;SDS011;44020;50.890;15.796;2023-09-19T09:02:45;2.20;;;1.20;;
58222;SDS011;44020;50.890;15.796;2023-09-19T09:05:13;2.00;;;1.20;;
58222;SDS011;44020;50.890;15.796;2023-09-19T09:07:42;3.10;;;1.20;;
58222;SDS011;44020;50.890;15.796;2023-09-19T09:10:10;2.40;;;1.20;;
58222;SDS011;44020;50.890;15.796;2023-09-19T09:12:38;2.60;;;1.30;;
58222;SDS011;44020;50.890;15.796;2023-09-19T09:15:07;2.70;;;1.40;;
58222;SDS011;44020;50.890;15.796;2023-09-19T09:17:38;4.10;;;1.40;;
58222;SDS011;44020;50.890;15.796;2023-09-19T09:20:05;1.80;;;1.20;;
58222;SDS011;44020;50.890;15.796;2023-09-19T09:22:36;1.90;;;1.40;;
58222;SDS011;44020;50.890;15.796;2023-09-19T09:25:06;3.50;;;1.30;;
58222;SDS011;44020;50.890;15.796;2023-09-19T09:27:33;4.20;;;1.40;;
58222;SDS011;44020;50.890;15.796;2023-09-19T09:30:01;3.00;;;1.20;;
58222;SDS011;44020;50.890;15.796;2023-09-19T09:32:30;3.10;;;1.50;;
58222;SDS011;44020;50.890;15.796;2023-09-19T09:35:01;2.20;;;1.50;;
58222;SDS011;44020;50.890;15.796;2023-09-19T09:37:31;2.40;;;1.50;;
58222;SDS011;44020;50.890;15.796;2023-09-19T09:40:03;1.90;;;1.20;;
58222;SDS011;44020;50.890;15.796;2023-09-19T09:42:57;4.10;;;1.40;;
58222;SDS011;44020;50.890;15.796;2023-09-19T09:45:27;4.20;;;1.30;;
58222;SDS011;44020;50.890;15.796;2023-09-19T09:48:00;3.00;;;1.10;;
58222;SDS011;44020;50.890;15.796;2023-09-19T09:50:33;2.70;;;1.20;;
58222;SDS011;44020;50.890;15.796;2023-09-19T09:53:21;1.80;;;1.10;;
58222;SDS011;44020;50.890;15.796;2023-09-19T09:56:00;3.10;;;1.30;;
58222;SDS011;44020;50.890;15.796;2023-09-19T09:58:33;2.20;;;1.20;;
58222;SDS011;44020;50.890;15.796;2023-09-19T10:01:03;2.90;;;0.90;;
58222;SDS011;44020;50.890;15.796;2023-09-19T10:03:41;1.60;;;1.10;;
58222;SDS011;44020;50.890;15.796;2023-09-19T10:06:16;2.20;;;1.00;;
58222;SDS011;44020;50.890;15.796;2023-09-19T10:08:59;2.30;;;1.30;;
58222;SDS011;44020;50.890;15.796;2023-09-19T10:12:08;2.40;;;1.00;;
58222;SDS011;44020;50.890;15.796;2023-09-19T10:14:39;3.50;;;1.10;;
58222;SDS011;44020;50.890;15.796;2023-09-19T10:17:10;2.10;;;1.00;;
58222;SDS011;44020;50.890;15.796;2023-09-19T10:19:45;1.70;;;1.00;;
58222;SDS011;44020;50.890;15.796;2023-09-19T10:22:18;2.40;;;1.00;;
58222;SDS011;44020;50.890;15.796;2023-09-19T10:24:49;2.90;;;0.90;;
58222;SDS011;44020;50.890;15.796;2023-09-19T10:27:19;2.60;;;1.00;;
58222;SDS011;44020;50.890;15.796;2023-09-19T10:29:48;3.90;;;1.10;;
58222;SDS011;44020;50.890;15.796;2023-09-19T10:32:17;2.50;;;1.00;;
58222;SDS011;44020;50.890;15.796;2023-09-19T10:34:49;1.70;;;1.10;;
58222;SDS011;44020;50.890;15.796;2023-09-19T10:37:16;1.90;;;0.70;;
58222;SDS011;44020;50.890;15.796;2023-09-19T10:39:46;1.70;;;0.90;;
58222;SDS011;44020;50.890;15.796;2023-09-19T10:42:16;1.30;;;0.70;;
58222;SDS011;44020;50.890;15.796;2023-09-19T10:44:47;3.00;;;1.20;;
58222;SDS011;44020;50.890;15.796;2023-09-19T10:47:20;2.60;;;1.00;;
58222;SDS011;44020;50.890;15.796;2023-09-19T10:49:51;3.70;;;1.00;;
58222;SDS011;44020;50.890;15.796;2023-09-19T10:52:20;1.30;;;0.70;;
58222;SDS011;44020;50.890;15.796;2023-09-19T10:54:51;1.70;;;0.90;;
58222;SDS011;44020;50.890;15.796;2023-09-19T11:00:01;3.00;;;0.90;;
58222;SDS011;44020;50.890;15.796;2023-09-19T11:05:39;1.70;;;0.90;;
58222;SDS011;44020;50.890;15.796;2023-09-19T11:08:07;2.20;;;1.10;;
58222;SDS011;44020;50.890;15.796;2023-09-19T11:13:27;3.30;;;1.20;;
58222;SDS011;44020;50.890;15.796;2023-09-19T11:26:49;1.50;;;1.10;;
58222;SDS011;44020;50.890;15.796;2023-09-19T11:29:28;2.50;;;1.20;;
58222;SDS011;44020;50.890;15.796;2023-09-19T11:31:59;2.40;;;1.20;;
58222;SDS011;44020;50.890;15.796;2023-09-19T11:37:59;2.40;;;1.10;;
58222;SDS011;44020;50.890;15.796;2023-09-19T11:40:05;2.40;;;0.90;;
58222;SDS011;44020;50.890;15.796;2023-09-19T11:42:43;1.90;;;0.90;;
58222;SDS011;44020;50.890;15.796;2023-09-19T11:48:10;2.10;;;1.20;;
58222;SDS011;44020;50.890;15.796;2023-09-19T11:50:42;3.10;;;1.20;;
58222;SDS011;44020;50.890;15.796;2023-09-19T11:53:13;2.40;;;1.10;;
58222;SDS011;44020;50.890;15.796;2023-09-19T11:55:42;1.40;;;0.90;;
58222;SDS011;44020;50.890;15.796;2023-09-19T11:58:10;1.90;;;0.90;;
58222;SDS011;44020;50.890;15.796;2023-09-19T12:00:45;1.60;;;1.00;;
58222;SDS011;44020;50.890;15.796;2023-09-19T12:03:22;2.00;;;1.10;;
58222;SDS011;44020;50.890;15.796;2023-09-19T12:05:51;1.60;;;0.80;;
58222;SDS011;44020;50.890;15.796;2023-09-19T12:08:18;3.50;;;1.00;;
58222;SDS011;44020;50.890;15.796;2023-09-19T12:10:48;7.50;;;1.10;;
58222;SDS011;44020;50.890;15.796;2023-09-19T12:13:18;4.80;;;1.00;;
58222;SDS011;44020;50.890;15.796;2023-09-19T12:15:45;1.10;;;0.70;;
58222;SDS011;44020;50.890;15.796;2023-09-19T12:18:29;1.30;;;0.80;;
58222;SDS011;44020;50.890;15.796;2023-09-19T12:23:24;1.60;;;1.10;;
58222;SDS011;44020;50.890;15.796;2023-09-19T12:25:55;1.60;;;0.80;;
58222;SDS011;44020;50.890;15.796;2023-09-19T12:28:24;2.40;;;1.00;;
58222;SDS011;44020;50.890;15.796;2023-09-19T12:30:53;2.50;;;1.10;;
58222;SDS011;44020;50.890;15.796;2023-09-19T12:33:21;2.00;;;0.70;;
58222;SDS011;44020;50.890;15.796;2023-09-19T12:35:53;2.00;;;1.10;;
58222;SDS011;44020;50.890;15.796;2023-09-19T12:38:26;3.30;;;1.00;;
58222;SDS011;44020;50.890;15.796;2023-09-19T12:41:01;3.70;;;1.00;;
58222;SDS011;44020;50.890;15.796;2023-09-19T12:43:29;1.50;;;0.80;;
58222;SDS011;44020;50.890;15.796;2023-09-19T12:45:59;5.20;;;1.00;;
58222;SDS011;44020;50.890;15.796;2023-09-19T12:48:27;1.30;;;0.80;;
58222;SDS011;44020;50.890;15.796;2023-09-19T12:51:05;3.10;;;1.00;;
58222;SDS011;44020;50.890;15.796;2023-09-19T12:53:42;2.50;;;1.10;;
58222;SDS011;44020;50.890;15.796;2023-09-19T12:56:18;3.20;;;0.90;;
58222;SDS011;44020;50.890;15.796;2023-09-19T12:58:55;3.80;;;1.10;;
58222;SDS011;44020;50.890;15.796;2023-09-19T13:01:23;3.50;;;0.80;;
58222;SDS011;44020;50.890;15.796;2023-09-19T13:07:01;2.20;;;0.80;;
58222;SDS011;44020;50.890;15.796;2023-09-19T13:09:28;2.20;;;1.00;;
58222;SDS011;44020;50.890;15.796;2023-09-19T13:14:29;1.40;;;1.00;;
58222;SDS011;44020;50.890;15.796;2023-09-19T13:17:07;2.20;;;1.10;;
58222;SDS011;44020;50.890;15.796;2023-09-19T13:19:43;1.70;;;1.00;;
58222;SDS011;44020;50.890;15.796;2023-09-19T13:25:10;1.90;;;1.20;;
58222;SDS011;44020;50.890;15.796;2023-09-19T13:27:47;4.20;;;1.10;;
58222;SDS011;44020;50.890;15.796;2023-09-19T13:30:21;2.20;;;1.10;;
58222;SDS011;44020;50.890;15.796;2023-09-19T13:33:04;1.40;;;1.00;;
58222;SDS011;44020;50.890;15.796;2023-09-19T13:35:36;2.80;;;0.70;;
58222;SDS011;44020;50.890;15.796;2023-09-19T13:38:06;3.50;;;1.20;;
58222;SDS011;44020;50.890;15.796;2023-09-19T13:40:41;2.20;;;1.20;;
58222;SDS011;44020;50.890;15.796;2023-09-19T13:43:16;2.10;;;1.10;;
58222;SDS011;44020;50.890;15.796;2023-09-19T13:45:43;2.60;;;1.30;;
58222;SDS011;44020;50.890;15.796;2023-09-19T13:48:10;3.00;;;0.90;;
58222;SDS011;44020;50.890;15.796;2023-09-19T13:50:38;2.20;;;1.00;;
58222;SDS011;44020;50.890;15.796;2023-09-19T13:53:09;2.90;;;1.00;;
58222;SDS011;44020;50.890;15.796;2023-09-19T13:55:36;1.10;;;0.80;;
58222;SDS011;44020;50.890;15.796;2023-09-19T13:58:04;1.90;;;1.10;;
58222;SDS011;44020;50.890;15.796;2023-09-19T14:00:32;1.30;;;0.90;;
58222;SDS011;44020;50.890;15.796;2023-09-19T14:03:02;2.30;;;1.10;;
58222;SDS011;44020;50.890;15.796;2023-09-19T14:05:31;2.00;;;1.20;;
58222;SDS011;44020;50.890;15.796;2023-09-19T14:07:58;3.00;;;1.10;;
58222;SDS011;44020;50.890;15.796;2023-09-19T14:10:30;3.20;;;1.40;;
58222;SDS011;44020;50.890;15.796;2023-09-19T14:12:58;2.20;;;1.00;;
58222;SDS011;44020;50.890;15.796;2023-09-19T14:15:28;1.90;;;1.00;;
58222;SDS011;44020;50.890;15.796;2023-09-19T14:17:59;2.50;;;0.90;;
58222;SDS011;44020;50.890;15.796;2023-09-19T14:20:27;2.40;;;1.10;;
58222;SDS011;44020;50.890;15.796;2023-09-19T14:22:54;1.90;;;1.20;;
58222;SDS011;44020;50.890;15.796;2023-09-19T14:25:21;2.60;;;0.90;;
58222;SDS011;44020;50.890;15.796;2023-09-19T14:27:48;7.50;;;1.40;;
58222;SDS011;44020;50.890;15.796;2023-09-19T14:30:18;1.40;;;0.90;;
58222;SDS011;44020;50.890;15.796;2023-09-19T14:32:47;1.80;;;0.70;;
58222;SDS011;44020;50.890;15.796;2023-09-19T14:37:57;4.00;;;1.50;;
58222;SDS011;44020;50.890;15.796;2023-09-19T14:40:24;2.00;;;1.10;;
58222;SDS011;44020;50.890;15.796;2023-09-19T14:42:53;2.00;;;1.20;;
58222;SDS011;44020;50.890;15.796;2023-09-19T14:45:51;2.10;;;0.90;;
58222;SDS011;44020;50.890;15.796;2023-09-19T14:48:26;2.30;;;1.10;;
58222;SDS011;44020;50.890;15.796;2023-09-19T14:51:14;2.90;;;1.00;;
58222;SDS011;44020;50.890;15.796;2023-09-19T14:53:41;1.30;;;1.10;;
58222;SDS011;44020;50.890;15.796;2023-09-19T14:56:17;2.40;;;1.40;;
58222;SDS011;44020;50.890;15.796;2023-09-19T14:58:46;1.10;;;0.80;;
58222;SDS011;44020;50.890;15.796;2023-09-19T15:04:36;1.50;;;1.10;;
58222;SDS011;44020;50.890;15.796;2023-09-19T15:07:27;2.70;;;1.00;;
58222;SDS011;44020;50.890;15.796;2023-09-19T15:10:20;3.60;;;1.20;;
58222;SDS011;44020;50.890;15.796;2023-09-19T15:13:00;1.70;;;1.10;;
58222;SDS011;44020;50.890;15.796;2023-09-19T15:18:40;3.10;;;1.00;;
58222;SDS011;44020;50.890;15.796;2023-09-19T15:21:28;1.50;;;1.20;;
58222;SDS011;44020;50.890;15.796;2023-09-19T15:23:58;2.00;;;1.20;;
58222;SDS011;44020;50.890;15.796;2023-09-19T15:26:25;2.30;;;1.10;;
58222;SDS011;44020;50.890;15.796;2023-09-19T15:29:08;1.50;;;1.10;;
58222;SDS011;44020;50.890;15.796;2023-09-19T15:31:39;1.50;;;1.10;;
58222;SDS011;44020;50.890;15.796;2023-09-19T15:34:15;2.90;;;0.80;;
58222;SDS011;44020;50.890;15.796;2023-09-19T15:36:52;2.40;;;1.10;;
58222;SDS011;44020;50.890;15.796;2023-09-19T15:39:19;1.80;;;0.90;;
58222;SDS011;44020;50.890;15.796;2023-09-19T15:44:37;2.10;;;1.50;;
58222;SDS011;44020;50.890;15.796;2023-09-19T15:47:05;2.70;;;1.40;;
58222;SDS011;44020;50.890;15.796;2023-09-19T15:49:48;1.40;;;1.10;;
58222;SDS011;44020;50.890;15.796;2023-09-19T15:52:17;2.80;;;1.10;;
58222;SDS011;44020;50.890;15.796;2023-09-19T15:54:46;1.60;;;0.80;;
58222;SDS011;44020;50.890;15.796;2023-09-19T15:57:14;1.90;;;1.10;;
58222;SDS011;44020;50.890;15.796;2023-09-19T15:59:41;4.80;;;0.90;;
58222;SDS011;44020;50.890;15.796;2023-09-19T16:02:09;1.10;;;1.00;;
58222;SDS011;44020;50.890;15.796;2023-09-19T16:04:42;2.40;;;0.90;;
58222;SDS011;44020;50.890;15.796;2023-09-19T16:07:10;2.60;;;1.00;;
58222;SDS011;44020;50.890;15.796;2023-09-19T16:09:37;2.40;;;0.90;;
58222;SDS011;44020;50.890;15.796;2023-09-19T16:12:05;1.70;;;0.70;;